Time;durP1;ratioP1;P1;durP2;ratioP2;P2;SDS_P1;SDS_P2;PMS_P1;PMS_P2;Temp;Humidity;BMP_temperature;BMP_pressure;BME280_temperature;BME280_humidity;BME280_pressure;Samples;Min_cycle;Max_cycle;Signal;HPM_P1;HPM_P2
2022/06/01 03:34:10;;;;;;;20.00;18.53;;;12.30;99.90;;;;;;5292195;23;20493;-74
2022/06/01 03:36:36;;;;;;;20.30;18.53;;;12.40;99.90;;;;;;4965065;28;20456;-74
2022/06/01 03:39:04;;;;;;;19.37;18.00;;;12.40;99.90;;;;;;4971547;28;20459;-75
2022/06/01 03:41:30;;;;;;;19.43;18.13;;;12.30;99.90;;;;;;4953115;29;20551;-75
2022/06/01 03:46:41;;;;;;;19.57;18.20;;;12.30;99.90;;;;;;4953317;29;20428;-75
2022/06/01 03:49:09;;;;;;;20.00;18.47;;;12.30;99.90;;;;;;4953141;29;20452;-75
2022/06/01 03:51:37;;;;;;;19.80;18.10;;;12.30;99.90;;;;;;4952936;28;20956;-76
2022/06/01 03:54:04;;;;;;;18.43;16.97;;;12.30;99.90;;;;;;4951697;28;20819;-74
2022/06/01 20:22:54;;;;;;;10.85;10.45;;;18.60;72.20;;;;;;5978207;23;20414;-74
2022/06/01 20:25:24;;;;;;;10.90;10.50;;;18.50;74.30;;;;;;4985782;28;20810;-74
2022/06/01 20:27:51;;;;;;;11.47;10.87;;;18.40;76.20;;;;;;4990225;28;20630;-74
2022/06/01 20:30:18;;;;;;;9.73;9.33;;;18.40;76.20;;;;;;4990035;28;20493;-75
2022/06/01 20:32:45;;;;;;;12.07;11.40;;;18.40;76.60;;;;;;4990359;28;20457;-75
2022/06/01 20:35:13;;;;;;;12.33;11.63;;;18.30;77.20;;;;;;4989750;28;20861;-74
2022/06/01 20:37:39;;;;;;;12.17;11.57;;;18.20;77.70;;;;;;4989897;28;20509;-74
2022/06/01 20:40:11;;;;;;;10.43;9.93;;;18.20;77.50;;;;;;4990093;28;20450;-74
2022/06/01 20:42:39;;;;;;;10.47;9.77;;;18.30;78.10;;;;;;4989964;28;21051;-75
2022/06/01 20:45:07;;;;;;;12.43;11.37;;;18.20;78.90;;;;;;4989908;28;20953;-75
2022/06/01 20:47:34;;;;;;;11.20;10.70;;;18.20;80.50;;;;;;4989988;28;20846;-75
2022/06/01 20:50:02;;;;;;;11.17;10.40;;;18.20;81.40;;;;;;4990268;28;20866;-74
2022/06/01 20:52:28;;;;;;;11.00;10.20;;;18.20;82.00;;;;;;4990228;28;20450;-76
2022/06/01 20:54:55;;;;;;;11.73;10.77;;;18.20;82.70;;;;;;4989646;28;20466;-76
2022/06/01 20:57:24;;;;;;;11.33;10.63;;;18.20;83.30;;;;;;4989679;28;20451;-73
2022/06/01 20:59:50;;;;;;;10.73;10.23;;;18.30;84.00;;;;;;4989926;28;21398;-74
2022/06/01 21:02:17;;;;;;;10.80;10.30;;;18.30;85.00;;;;;;4989764;28;20490;-76
2022/06/01 21:04:44;;;;;;;10.80;10.30;;;18.30;84.40;;;;;;4989959;28;20854;-75
2022/06/01 21:07:12;;;;;;;10.80;10.20;;;18.20;84.10;;;;;;4988800;28;20465;-83
2022/06/01 21:09:39;;;;;;;10.80;10.30;;;18.10;84.40;;;;;;4978038;28;20459;-84
2022/06/01 21:12:19;;;;;;;10.50;10.00;;;18.10;84.50;;;;;;4991415;28;20445;-75
2022/06/01 21:14:49;;;;;;;11.43;10.77;;;18.30;84.90;;;;;;4984410;28;20516;-76
2022/06/01 21:17:16;;;;;;;10.37;9.43;;;18.30;84.60;;;;;;4991494;28;20497;-75
2022/06/01 21:19:43;;;;;;;12.03;10.80;;;18.20;84.90;;;;;;4995538;28;20793;-75
2022/06/01 21:22:10;;;;;;;11.57;10.87;;;18.30;85.30;;;;;;4994379;28;20491;-76
2022/06/01 21:24:38;;;;;;;11.20;10.50;;;18.20;87.00;;;;;;4986971;28;20492;-76
2022/06/01 21:27:07;;;;;;;12.73;12.03;;;18.20;87.90;;;;;;4979961;28;20451;-76
2022/06/01 21:29:34;;;;;;;14.30;13.53;;;18.30;87.50;;;;;;4990627;28;20538;-74
2022/06/01 21:32:03;;;;;;;13.73;12.87;;;18.30;88.00;;;;;;4990867;28;20851;-74
2022/06/01 21:34:30;;;;;;;14.60;13.40;;;18.30;88.10;;;;;;4989066;28;20960;-75
2022/06/01 21:36:57;;;;;;;14.30;13.30;;;18.30;87.80;;;;;;4993740;28;20450;-76
2022/06/01 21:39:23;;;;;;;14.43;12.93;;;18.20;87.70;;;;;;4987921;28;20452;-75
2022/06/01 21:41:50;;;;;;;14.27;13.20;;;18.30;87.90;;;;;;4990138;28;20483;-76
2022/06/01 21:44:17;;;;;;;13.60;12.80;;;18.30;88.10;;;;;;4990955;28;20450;-75
2022/06/01 21:46:44;;;;;;;12.80;11.70;;;18.20;88.50;;;;;;4990911;28;20472;-75
2022/06/01 21:49:12;;;;;;;12.00;11.00;;;18.20;88.70;;;;;;4989051;28;20541;-75
2022/06/01 21:51:39;;;;;;;14.70;13.50;;;18.20;89.00;;;;;;4989588;28;20439;-75
2022/06/01 21:54:06;;;;;;;15.33;13.40;;;18.30;88.70;;;;;;4982688;28;20451;-76
2022/06/01 21:56:33;;;;;;;12.83;12.00;;;18.20;88.70;;;;;;4990685;28;20439;-75
2022/06/01 21:59:00;;;;;;;12.13;11.33;;;18.20;89.00;;;;;;4990768;28;20530;-76
2022/06/01 22:01:27;;;;;;;12.33;11.63;;;18.20;88.50;;;;;;4988174;28;20444;-76
2022/06/01 22:03:54;;;;;;;13.27;12.43;;;18.30;85.80;;;;;;4989940;28;20439;-75
2022/06/01 22:06:22;;;;;;;12.00;11.50;;;18.30;84.60;;;;;;4990324;28;20466;-76
2022/06/01 22:08:49;;;;;;;10.80;10.00;;;18.30;84.40;;;;;;4990688;28;20454;-75
2022/06/01 22:14:00;;;;;;;12.67;11.43;;;18.30;82.60;;;;;;4989328;28;20473;-75
2022/06/01 22:16:27;;;;;;;12.70;12.20;;;18.20;82.50;;;;;;4982078;28;20466;-75
2022/06/01 22:18:55;;;;;;;13.30;12.50;;;18.00;85.00;;;;;;4990588;28;20446;-75
2022/06/01 22:21:23;;;;;;;10.20;9.70;;;17.90;85.90;;;;;;4990182;28;20451;-74
2022/06/01 22:23:50;;;;;;;9.87;9.37;;;17.70;85.90;;;;;;4989824;28;20772;-74
2022/06/01 22:26:18;;;;;;;11.17;10.40;;;17.60;87.70;;;;;;4989882;28;20451;-74
2022/06/01 22:28:44;;;;;;;10.70;10.13;;;17.50;88.60;;;;;;4990091;28;20469;-74
2022/06/01 22:31:12;;;;;;;10.80;9.90;;;17.40;88.70;;;;;;4988599;28;20450;-74
2022/06/01 22:33:39;;;;;;;11.20;10.70;;;17.30;88.50;;;;;;4989266;28;20448;-75
2022/06/01 22:38:52;;;;;;;10.70;10.20;;;17.30;88.50;;;;;;4985717;28;20423;-74
2022/06/01 22:44:09;;;;;;;11.30;10.60;;;17.20;89.00;;;;;;4993260;28;20955;-78
2022/06/01 22:46:38;;;;;;;12.10;11.20;;;17.10;89.80;;;;;;4993144;28;20443;-77
2022/06/01 22:49:06;;;;;;;11.03;10.33;;;17.00;90.00;;;;;;4993290;28;20450;-75
2022/06/01 22:51:35;;;;;;;11.07;10.47;;;17.10;89.90;;;;;;4993044;28;20538;-75
2022/06/01 22:54:04;;;;;;;11.20;10.53;;;17.30;90.20;;;;;;4993164;28;20545;-75
2022/06/01 22:56:31;;;;;;;11.83;11.23;;;17.30;90.70;;;;;;4993012;28;20447;-75
2022/06/01 22:58:58;;;;;;;11.97;11.47;;;17.20;91.20;;;;;;4993311;28;20449;-75
2022/06/01 23:01:26;;;;;;;11.53;11.03;;;17.20;91.50;;;;;;4992752;28;20462;-76
2022/06/01 23:03:53;;;;;;;10.07;9.60;;;17.10;90.90;;;;;;4992804;28;21317;-76
2022/06/01 23:06:20;;;;;;;11.10;10.50;;;17.20;89.70;;;;;;4992675;28;20517;-75
2022/06/01 23:08:47;;;;;;;10.50;9.83;;;17.30;87.30;;;;;;4992753;28;20454;-76
2022/06/01 23:11:15;;;;;;;10.47;10.07;;;17.40;86.40;;;;;;4993007;28;20530;-76
2022/06/01 23:13:42;;;;;;;10.50;9.90;;;17.50;85.10;;;;;;4992774;28;20562;-76
2022/06/01 23:16:08;;;;;;;10.50;9.80;;;17.50;83.40;;;;;;4972234;28;20935;-76
2022/06/01 23:18:35;;;;;;;11.03;10.30;;;17.50;82.90;;;;;;4962137;28;20464;-76
2022/06/01 23:21:02;;;;;;;10.20;9.80;;;17.50;82.60;;;;;;4953714;29;20461;-76
2022/06/01 23:23:31;;;;;;;10.67;9.97;;;17.40;82.60;;;;;;4961365;28;20866;-77
2022/06/01 23:26:01;;;;;;;10.67;9.70;;;17.40;82.80;;;;;;4970732;28;20448;-76
2022/06/01 23:28:31;;;;;;;10.00;9.60;;;17.40;83.90;;;;;;4972609;28;20452;-76
2022/06/01 23:31:13;;;;;;;9.67;9.37;;;17.40;83.30;;;;;;4972457;28;20950;-75
2022/06/01 23:33:53;;;;;;;10.10;9.60;;;17.30;84.10;;;;;;4970304;28;20448;-75
2022/06/01 23:36:34;;;;;;;9.63;9.33;;;17.20;83.70;;;;;;4972879;28;20451;-74
2022/06/01 23:39:15;;;;;;;10.30;9.90;;;17.20;83.90;;;;;;4972675;28;20455;-76
2022/06/01 23:41:54;;;;;;;10.47;9.90;;;17.20;84.10;;;;;;4972615;28;20462;-75
2022/06/01 23:44:48;;;;;;;10.40;9.80;;;17.10;84.30;;;;;;4972533;28;20451;-76
2022/06/01 23:47:38;;;;;;;10.40;10.00;;;17.10;84.80;;;;;;4972787;28;20448;-75
